sensor_id;sensor_type;location;lat;lon;timestamp;pressure;altitude;pressure_sealevel;temperature;humidity
76680;BME280;65597;51.520;-0.224;2022-12-18T00:00:26;102226.46;;;4.62;37.64
76680;BME280;65597;51.520;-0.224;2022-12-18T00:02:52;102223.97;;;4.86;37.63
76680;BME280;65597;51.520;-0.224;2022-12-18T00:05:18;102225.46;;;4.87;37.38
76680;BME280;65597;51.520;-0.224;2022-12-18T00:07:43;102226.66;;;5.15;37.28
76680;BME280;65597;51.520;-0.224;2022-12-18T00:10:09;102220.27;;;5.18;37.32
76680;BME280;65597;51.520;-0.224;2022-12-18T00:12:34;102212.39;;;4.96;37.28
76680;BME280;65597;51.520;-0.224;2022-12-18T00:14:59;102209.76;;;4.97;37.18
76680;BME280;65597;51.520;-0.224;2022-12-18T00:17:24;102206.57;;;4.91;37.32
76680;BME280;65597;51.520;-0.224;2022-12-18T00:19:49;102201.44;;;4.90;37.32
76680;BME280;65597;51.520;-0.224;2022-12-18T00:22:18;102200.00;;;4.97;37.33
76680;BME280;65597;51.520;-0.224;2022-12-18T00:24:41;102196.37;;;4.98;37.23
76680;BME280;65597;51.520;-0.224;2022-12-18T00:27:06;102200.92;;;4.86;37.22
76680;BME280;65597;51.520;-0.224;2022-12-18T00:29:32;102195.18;;;4.97;37.21
76680;BME280;65597;51.520;-0.224;2022-12-18T00:31:57;102193.62;;;4.94;37.27
76680;BME280;65597;51.520;-0.224;2022-12-18T00:34:23;102188.91;;;4.95;37.19
76680;BME280;65597;51.520;-0.224;2022-12-18T00:36:49;102187.37;;;4.91;37.24
76680;BME280;65597;51.520;-0.224;2022-12-18T00:39:14;102192.97;;;4.97;37.13
76680;BME280;65597;51.520;-0.224;2022-12-18T00:41:40;102193.08;;;4.99;36.97
76680;BME280;65597;51.520;-0.224;2022-12-18T00:44:06;102190.63;;;4.93;36.89
76680;BME280;65597;51.520;-0.224;2022-12-18T00:46:31;102190.81;;;5.19;36.84
76680;BME280;65597;51.520;-0.224;2022-12-18T00:48:55;102194.33;;;4.91;36.82
76680;BME280;65597;51.520;-0.224;2022-12-18T00:51:21;102192.07;;;4.90;36.76
76680;BME280;65597;51.520;-0.224;2022-12-18T00:53:47;102193.58;;;4.88;36.81
76680;BME280;65597;51.520;-0.224;2022-12-18T00:56:12;102189.78;;;4.87;36.73
76680;BME280;65597;51.520;-0.224;2022-12-18T00:58:37;102192.65;;;4.86;36.85
76680;BME280;65597;51.520;-0.224;2022-12-18T01:01:03;102187.01;;;5.09;36.74
76680;BME280;65597;51.520;-0.224;2022-12-18T01:03:28;102185.02;;;4.81;36.81
76680;BME280;65597;51.520;-0.224;2022-12-18T01:05:53;102179.68;;;4.86;36.70
76680;BME280;65597;51.520;-0.224;2022-12-18T01:08:18;102180.05;;;4.82;36.76
76680;BME280;65597;51.520;-0.224;2022-12-18T01:10:44;102178.70;;;5.07;36.77
76680;BME280;65597;51.520;-0.224;2022-12-18T01:13:09;102183.70;;;4.86;36.61
76680;BME280;65597;51.520;-0.224;2022-12-18T01:15:35;102176.73;;;4.86;36.58
76680;BME280;65597;51.520;-0.224;2022-12-18T01:18:00;102172.13;;;4.62;36.50
76680;BME280;65597;51.520;-0.224;2022-12-18T01:20:26;102170.14;;;4.85;36.45
76680;BME280;65597;51.520;-0.224;2022-12-18T01:22:52;102166.03;;;4.55;36.43
76680;BME280;65597;51.520;-0.224;2022-12-18T01:25:17;102158.49;;;4.81;36.41
76680;BME280;65597;51.520;-0.224;2022-12-18T01:27:43;102156.79;;;4.76;36.29
76680;BME280;65597;51.520;-0.224;2022-12-18T01:30:08;102153.53;;;4.69;36.42
76680;BME280;65597;51.520;-0.224;2022-12-18T01:32:33;102147.57;;;4.79;36.31
76680;BME280;65597;51.520;-0.224;2022-12-18T01:34:58;102140.77;;;4.78;36.32
76680;BME280;65597;51.520;-0.224;2022-12-18T01:37:24;102139.60;;;4.76;36.26
76680;BME280;65597;51.520;-0.224;2022-12-18T01:39:49;102135.48;;;4.75;36.24
76680;BME280;65597;51.520;-0.224;2022-12-18T01:42:16;102128.76;;;4.98;36.16
76680;BME280;65597;51.520;-0.224;2022-12-18T01:44:56;102124.58;;;4.76;36.12
76680;BME280;65597;51.520;-0.224;2022-12-18T01:47:05;102117.61;;;4.68;36.24
76680;BME280;65597;51.520;-0.224;2022-12-18T01:49:31;102114.50;;;4.63;36.29
76680;BME280;65597;51.520;-0.224;2022-12-18T01:51:56;102110.69;;;4.59;36.35
76680;BME280;65597;51.520;-0.224;2022-12-18T01:54:22;102112.38;;;4.59;36.43
76680;BME280;65597;51.520;-0.224;2022-12-18T01:56:47;102109.51;;;4.59;36.42
76680;BME280;65597;51.520;-0.224;2022-12-18T01:59:13;102115.34;;;4.84;36.41
76680;BME280;65597;51.520;-0.224;2022-12-18T02:01:38;102120.93;;;4.59;36.41
76680;BME280;65597;51.520;-0.224;2022-12-18T02:04:18;102125.66;;;4.84;36.42
76680;BME280;65597;51.520;-0.224;2022-12-18T02:06:34;102126.16;;;4.64;36.37
76680;BME280;65597;51.520;-0.224;2022-12-18T02:09:02;102125.72;;;4.64;36.38
76680;BME280;65597;51.520;-0.224;2022-12-18T02:11:27;102123.51;;;4.60;36.31
76680;BME280;65597;51.520;-0.224;2022-12-18T02:13:51;102132.46;;;4.65;36.21
76680;BME280;65597;51.520;-0.224;2022-12-18T02:16:19;102137.45;;;4.66;36.20
76680;BME280;65597;51.520;-0.224;2022-12-18T02:18:38;102139.16;;;4.68;36.17
76680;BME280;65597;51.520;-0.224;2022-12-18T02:21:09;102141.60;;;4.69;36.14
76680;BME280;65597;51.520;-0.224;2022-12-18T02:23:44;102144.97;;;4.91;36.21
76680;BME280;65597;51.520;-0.224;2022-12-18T02:26:04;102149.39;;;4.67;36.22
76680;BME280;65597;51.520;-0.224;2022-12-18T02:28:20;102148.51;;;4.64;35.96
76680;BME280;65597;51.520;-0.224;2022-12-18T02:30:47;102150.34;;;4.65;36.12
76680;BME280;65597;51.520;-0.224;2022-12-18T02:33:11;102145.43;;;4.65;35.98
76680;BME280;65597;51.520;-0.224;2022-12-18T02:35:34;102148.08;;;4.64;35.89
76680;BME280;65597;51.520;-0.224;2022-12-18T02:38:00;102152.21;;;4.62;35.93
76680;BME280;65597;51.520;-0.224;2022-12-18T02:40:27;102155.83;;;4.58;35.92
76680;BME280;65597;51.520;-0.224;2022-12-18T02:42:50;102167.22;;;4.52;35.86
76680;BME280;65597;51.520;-0.224;2022-12-18T02:45:16;102171.67;;;5.00;35.86
76680;BME280;65597;51.520;-0.224;2022-12-18T02:47:44;102168.42;;;4.52;35.68
76680;BME280;65597;51.520;-0.224;2022-12-18T02:50:12;102168.71;;;4.43;35.71
76680;BME280;65597;51.520;-0.224;2022-12-18T02:52:38;102172.42;;;4.38;35.82
76680;BME280;65597;51.520;-0.224;2022-12-18T02:55:08;102175.38;;;4.61;35.92
76680;BME280;65597;51.520;-0.224;2022-12-18T02:57:31;102171.17;;;4.51;35.88
76680;BME280;65597;51.520;-0.224;2022-12-18T02:59:54;102167.64;;;4.45;35.99
76680;BME280;65597;51.520;-0.224;2022-12-18T03:02:19;102166.70;;;4.42;36.12
76680;BME280;65597;51.520;-0.224;2022-12-18T03:04:43;102159.99;;;4.09;36.21
76680;BME280;65597;51.520;-0.224;2022-12-18T03:07:08;102152.15;;;4.29;36.16
76680;BME280;65597;51.520;-0.224;2022-12-18T03:09:34;102148.05;;;4.08;36.08
76680;BME280;65597;51.520;-0.224;2022-12-18T03:12:00;102143.00;;;4.03;36.02
76680;BME280;65597;51.520;-0.224;2022-12-18T03:14:23;102133.84;;;4.25;36.09
76680;BME280;65597;51.520;-0.224;2022-12-18T03:16:49;102122.46;;;4.20;36.22
76680;BME280;65597;51.520;-0.224;2022-12-18T03:19:15;102121.21;;;4.17;36.23
76680;BME280;65597;51.520;-0.224;2022-12-18T03:21:42;102120.14;;;4.19;36.21
76680;BME280;65597;51.520;-0.224;2022-12-18T03:24:06;102117.69;;;4.18;36.19
76680;BME280;65597;51.520;-0.224;2022-12-18T03:26:29;102115.08;;;4.41;36.30
76680;BME280;65597;51.520;-0.224;2022-12-18T03:29:02;102112.59;;;4.17;36.39
76680;BME280;65597;51.520;-0.224;2022-12-18T03:31:20;102108.90;;;4.44;36.54
76680;BME280;65597;51.520;-0.224;2022-12-18T03:33:47;102104.99;;;4.20;36.62
76680;BME280;65597;51.520;-0.224;2022-12-18T03:36:09;102104.32;;;4.38;36.92
76680;BME280;65597;51.520;-0.224;2022-12-18T03:38:34;102098.83;;;3.94;37.35
76680;BME280;65597;51.520;-0.224;2022-12-18T03:41:03;102093.57;;;4.35;37.23
76680;BME280;65597;51.520;-0.224;2022-12-18T03:43:34;102095.18;;;4.07;37.49
76680;BME280;65597;51.520;-0.224;2022-12-18T03:45:54;102099.80;;;4.11;37.83
76680;BME280;65597;51.520;-0.224;2022-12-18T03:48:18;102106.50;;;3.96;37.79
76680;BME280;65597;51.520;-0.224;2022-12-18T03:50:46;102106.46;;;4.35;37.58
76680;BME280;65597;51.520;-0.224;2022-12-18T03:53:17;102096.51;;;3.90;37.89
76680;BME280;65597;51.520;-0.224;2022-12-18T03:55:34;102087.00;;;4.26;37.73
76680;BME280;65597;51.520;-0.224;2022-12-18T03:57:59;102084.70;;;4.07;37.60
76680;BME280;65597;51.520;-0.224;2022-12-18T04:00:23;102083.89;;;4.09;37.62
76680;BME280;65597;51.520;-0.224;2022-12-18T04:02:51;102082.14;;;4.43;37.43
76680;BME280;65597;51.520;-0.224;2022-12-18T04:05:14;102079.81;;;3.83;37.97
76680;BME280;65597;51.520;-0.224;2022-12-18T04:07:40;102082.17;;;3.82;38.07
76680;BME280;65597;51.520;-0.224;2022-12-18T04:10:07;102081.86;;;3.88;37.97
76680;BME280;65597;51.520;-0.224;2022-12-18T04:12:30;102083.39;;;3.87;37.93
76680;BME280;65597;51.520;-0.224;2022-12-18T04:14:56;102084.49;;;3.80;38.10
76680;BME280;65597;51.520;-0.224;2022-12-18T04:17:22;102089.69;;;3.57;38.84
76680;BME280;65597;51.520;-0.224;2022-12-18T04:19:46;102090.11;;;3.34;39.17
76680;BME280;65597;51.520;-0.224;2022-12-18T04:22:12;102081.96;;;3.73;38.60
76680;BME280;65597;51.520;-0.224;2022-12-18T04:24:37;102076.78;;;3.25;39.22
76680;BME280;65597;51.520;-0.224;2022-12-18T04:27:03;102082.36;;;3.13;39.08
76680;BME280;65597;51.520;-0.224;2022-12-18T04:29:28;102081.28;;;3.29;39.20
76680;BME280;65597;51.520;-0.224;2022-12-18T04:31:54;102072.13;;;3.66;38.73
76680;BME280;65597;51.520;-0.224;2022-12-18T04:34:20;102067.33;;;3.63;38.36
76680;BME280;65597;51.520;-0.224;2022-12-18T04:36:45;102064.82;;;3.78;38.37
76680;BME280;65597;51.520;-0.224;2022-12-18T04:39:10;102065.08;;;3.37;39.02
76680;BME280;65597;51.520;-0.224;2022-12-18T04:41:36;102070.05;;;3.27;39.30
76680;BME280;65597;51.520;-0.224;2022-12-18T04:44:01;102071.56;;;3.30;39.01
76680;BME280;65597;51.520;-0.224;2022-12-18T04:46:26;102062.01;;;3.50;39.17
76680;BME280;65597;51.520;-0.224;2022-12-18T04:48:51;102055.37;;;3.77;38.67
76680;BME280;65597;51.520;-0.224;2022-12-18T04:51:16;102053.51;;;4.00;38.83
76680;BME280;65597;51.520;-0.224;2022-12-18T04:53:42;102051.65;;;3.83;38.79
76680;BME280;65597;51.520;-0.224;2022-12-18T04:56:10;102049.05;;;3.73;38.74
76680;BME280;65597;51.520;-0.224;2022-12-18T04:58:33;102048.73;;;3.65;38.83
76680;BME280;65597;51.520;-0.224;2022-12-18T05:00:59;102037.21;;;4.13;38.52
76680;BME280;65597;51.520;-0.224;2022-12-18T05:03:24;102028.45;;;4.10;38.60
76680;BME280;65597;51.520;-0.224;2022-12-18T05:05:50;102016.00;;;4.16;38.58
76680;BME280;65597;51.520;-0.224;2022-12-18T05:08:15;102013.77;;;3.84;39.28
76680;BME280;65597;51.520;-0.224;2022-12-18T05:10:40;102009.18;;;3.76;39.03
76680;BME280;65597;51.520;-0.224;2022-12-18T05:13:06;102007.16;;;3.81;39.36
76680;BME280;65597;51.520;-0.224;2022-12-18T05:15:32;102006.43;;;3.11;39.67
76680;BME280;65597;51.520;-0.224;2022-12-18T05:17:57;102001.70;;;3.53;39.86
76680;BME280;65597;51.520;-0.224;2022-12-18T05:20:22;101992.96;;;3.76;39.53
76680;BME280;65597;51.520;-0.224;2022-12-18T05:22:47;101987.06;;;3.55;39.89
76680;BME280;65597;51.520;-0.224;2022-12-18T05:25:12;101983.16;;;3.41;39.72
76680;BME280;65597;51.520;-0.224;2022-12-18T05:27:38;101974.51;;;3.74;39.57
76680;BME280;65597;51.520;-0.224;2022-12-18T05:30:05;101970.13;;;3.87;39.37
76680;BME280;65597;51.520;-0.224;2022-12-18T05:32:29;101975.37;;;4.01;39.14
76680;BME280;65597;51.520;-0.224;2022-12-18T05:34:54;101973.51;;;3.99;39.24
76680;BME280;65597;51.520;-0.224;2022-12-18T05:37:20;101970.54;;;3.48;39.82
76680;BME280;65597;51.520;-0.224;2022-12-18T05:39:45;101965.57;;;3.22;40.58
76680;BME280;65597;51.520;-0.224;2022-12-18T05:42:10;101956.82;;;3.64;39.95
76680;BME280;65597;51.520;-0.224;2022-12-18T05:44:36;101951.29;;;2.79;41.32
76680;BME280;65597;51.520;-0.224;2022-12-18T05:47:02;101944.87;;;3.27;40.58
76680;BME280;65597;51.520;-0.224;2022-12-18T05:49:27;101946.58;;;3.32;40.46
76680;BME280;65597;51.520;-0.224;2022-12-18T05:51:52;101954.06;;;3.33;40.43
76680;BME280;65597;51.520;-0.224;2022-12-18T05:54:18;101959.28;;;3.12;40.75
76680;BME280;65597;51.520;-0.224;2022-12-18T05:56:44;101956.24;;;3.02;41.02
76680;BME280;65597;51.520;-0.224;2022-12-18T05:59:09;101944.60;;;3.16;40.85
76680;BME280;65597;51.520;-0.224;2022-12-18T06:01:35;101943.87;;;3.17;40.83
76680;BME280;65597;51.520;-0.224;2022-12-18T06:04:01;101945.67;;;3.18;40.84
76680;BME280;65597;51.520;-0.224;2022-12-18T06:06:27;101945.48;;;3.00;41.20
76680;BME280;65597;51.520;-0.224;2022-12-18T06:08:52;101938.27;;;3.03;41.14
76680;BME280;65597;51.520;-0.224;2022-12-18T06:11:20;101926.15;;;3.06;41.21
76680;BME280;65597;51.520;-0.224;2022-12-18T06:13:42;101918.19;;;3.46;41.10
76680;BME280;65597;51.520;-0.224;2022-12-18T06:16:13;101925.11;;;3.06;41.41
76680;BME280;65597;51.520;-0.224;2022-12-18T06:18:33;101932.29;;;2.93;41.73
76680;BME280;65597;51.520;-0.224;2022-12-18T06:20:59;101921.35;;;2.66;42.20
76680;BME280;65597;51.520;-0.224;2022-12-18T06:23:23;101916.64;;;2.81;41.98
76680;BME280;65597;51.520;-0.224;2022-12-18T06:25:48;101903.36;;;3.58;41.54
76680;BME280;65597;51.520;-0.224;2022-12-18T06:28:13;101893.37;;;2.98;41.75
76680;BME280;65597;51.520;-0.224;2022-12-18T06:30:39;101885.57;;;3.20;41.48
76680;BME280;65597;51.520;-0.224;2022-12-18T06:33:04;101882.16;;;3.08;41.67
76680;BME280;65597;51.520;-0.224;2022-12-18T06:35:29;101874.41;;;2.71;42.25
76680;BME280;65597;51.520;-0.224;2022-12-18T06:37:55;101865.86;;;2.68;42.36
76680;BME280;65597;51.520;-0.224;2022-12-18T06:40:20;101868.29;;;3.41;41.63
76680;BME280;65597;51.520;-0.224;2022-12-18T06:42:46;101867.10;;;2.89;42.08
76680;BME280;65597;51.520;-0.224;2022-12-18T06:45:11;101856.88;;;3.03;42.20
76680;BME280;65597;51.520;-0.224;2022-12-18T06:47:36;101853.86;;;2.71;42.34
76680;BME280;65597;51.520;-0.224;2022-12-18T06:50:02;101863.00;;;2.85;42.60
76680;BME280;65597;51.520;-0.224;2022-12-18T06:52:27;101864.39;;;2.95;42.14
76680;BME280;65597;51.520;-0.224;2022-12-18T06:54:52;101870.42;;;3.57;41.89
76680;BME280;65597;51.520;-0.224;2022-12-18T06:57:18;101878.58;;;3.26;41.67
76680;BME280;65597;51.520;-0.224;2022-12-18T06:59:43;101872.55;;;2.86;42.23
76680;BME280;65597;51.520;-0.224;2022-12-18T07:02:10;101870.61;;;3.52;41.50
76680;BME280;65597;51.520;-0.224;2022-12-18T07:04:33;101868.16;;;3.25;41.54
76680;BME280;65597;51.520;-0.224;2022-12-18T07:06:59;101865.53;;;3.22;41.60
76680;BME280;65597;51.520;-0.224;2022-12-18T07:09:24;101864.27;;;3.41;41.24
76680;BME280;65597;51.520;-0.224;2022-12-18T07:11:50;101856.38;;;3.55;40.99
76680;BME280;65597;51.520;-0.224;2022-12-18T07:14:15;101849.67;;;3.45;41.15
76680;BME280;65597;51.520;-0.224;2022-12-18T07:16:41;101842.70;;;3.47;41.04
76680;BME280;65597;51.520;-0.224;2022-12-18T07:19:06;101841.99;;;3.30;41.36
76680;BME280;65597;51.520;-0.224;2022-12-18T07:21:31;101844.53;;;3.01;41.93
76680;BME280;65597;51.520;-0.224;2022-12-18T07:23:56;101852.12;;;3.81;41.38
76680;BME280;65597;51.520;-0.224;2022-12-18T07:26:22;101854.94;;;3.69;41.11
76680;BME280;65597;51.520;-0.224;2022-12-18T07:28:48;101852.07;;;3.83;40.93
76680;BME280;65597;51.520;-0.224;2022-12-18T07:31:15;101843.30;;;3.67;40.76
76680;BME280;65597;51.520;-0.224;2022-12-18T07:33:39;101837.71;;;3.21;41.08
76680;BME280;65597;51.520;-0.224;2022-12-18T07:36:06;101836.00;;;3.16;41.39
76680;BME280;65597;51.520;-0.224;2022-12-18T07:38:30;101830.45;;;3.14;41.39
76680;BME280;65597;51.520;-0.224;2022-12-18T07:41:00;101824.67;;;3.41;41.20
76680;BME280;65597;51.520;-0.224;2022-12-18T07:43:20;101821.89;;;3.38;41.11
76680;BME280;65597;51.520;-0.224;2022-12-18T07:45:49;101814.06;;;3.42;41.08
76680;BME280;65597;51.520;-0.224;2022-12-18T07:48:11;101813.70;;;3.64;40.69
76680;BME280;65597;51.520;-0.224;2022-12-18T07:50:37;101817.49;;;3.14;41.45
76680;BME280;65597;51.520;-0.224;2022-12-18T07:53:01;101806.61;;;3.23;41.34
76680;BME280;65597;51.520;-0.224;2022-12-18T07:55:27;101795.47;;;3.56;40.87
76680;BME280;65597;51.520;-0.224;2022-12-18T07:57:52;101786.56;;;3.53;40.90
76680;BME280;65597;51.520;-0.224;2022-12-18T08:00:18;101781.60;;;3.18;41.31
76680;BME280;65597;51.520;-0.224;2022-12-18T08:02:43;101785.84;;;3.30;41.17
76680;BME280;65597;51.520;-0.224;2022-12-18T08:05:08;101798.31;;;3.31;40.80
76680;BME280;65597;51.520;-0.224;2022-12-18T08:07:34;101799.00;;;3.75;40.55
76680;BME280;65597;51.520;-0.224;2022-12-18T08:09:59;101795.96;;;3.80;40.54
76680;BME280;65597;51.520;-0.224;2022-12-18T08:12:24;101795.85;;;3.53;40.88
76680;BME280;65597;51.520;-0.224;2022-12-18T08:14:50;101794.07;;;3.80;40.45
76680;BME280;65597;51.520;-0.224;2022-12-18T08:17:16;101802.96;;;3.72;40.20
76680;BME280;65597;51.520;-0.224;2022-12-18T08:19:41;101810.25;;;3.96;40.16
76680;BME280;65597;51.520;-0.224;2022-12-18T08:22:07;101815.31;;;3.63;40.33
76680;BME280;65597;51.520;-0.224;2022-12-18T08:24:33;101812.08;;;3.92;39.97
76680;BME280;65597;51.520;-0.224;2022-12-18T08:26:58;101810.49;;;3.90;40.24
76680;BME280;65597;51.520;-0.224;2022-12-18T08:29:23;101804.22;;;3.80;40.44
76680;BME280;65597;51.520;-0.224;2022-12-18T08:31:49;101803.50;;;4.02;40.14
76680;BME280;65597;51.520;-0.224;2022-12-18T08:34:14;101807.93;;;4.02;40.08
76680;BME280;65597;51.520;-0.224;2022-12-18T08:36:39;101812.50;;;3.67;40.26
76680;BME280;65597;51.520;-0.224;2022-12-18T08:39:05;101815.85;;;3.79;40.01
76680;BME280;65597;51.520;-0.224;2022-12-18T08:41:31;101815.16;;;4.08;39.92
76680;BME280;65597;51.520;-0.224;2022-12-18T08:43:56;101812.51;;;3.55;40.38
76680;BME280;65597;51.520;-0.224;2022-12-18T08:46:24;101807.60;;;3.66;40.12
76680;BME280;65597;51.520;-0.224;2022-12-18T08:48:48;101804.87;;;3.48;40.48
76680;BME280;65597;51.520;-0.224;2022-12-18T08:51:13;101798.73;;;3.54;40.32
76680;BME280;65597;51.520;-0.224;2022-12-18T08:53:38;101809.00;;;3.73;40.40
76680;BME280;65597;51.520;-0.224;2022-12-18T08:56:04;101815.47;;;3.47;40.87
76680;BME280;65597;51.520;-0.224;2022-12-18T08:58:29;101808.86;;;3.79;40.32
76680;BME280;65597;51.520;-0.224;2022-12-18T09:01:00;101806.18;;;3.76;39.87
76680;BME280;65597;51.520;-0.224;2022-12-18T09:03:20;101801.53;;;3.95;40.05
76680;BME280;65597;51.520;-0.224;2022-12-18T09:05:46;101805.44;;;4.01;40.06
76680;BME280;65597;51.520;-0.224;2022-12-18T09:08:11;101805.12;;;3.72;39.98
76680;BME280;65597;51.520;-0.224;2022-12-18T09:10:41;101807.09;;;4.03;39.98
76680;BME280;65597;51.520;-0.224;2022-12-18T09:13:02;101801.09;;;3.86;39.88
76680;BME280;65597;51.520;-0.224;2022-12-18T09:15:27;101799.46;;;4.17;39.72
76680;BME280;65597;51.520;-0.224;2022-12-18T09:17:53;101797.38;;;4.09;39.69
76680;BME280;65597;51.520;-0.224;2022-12-18T09:20:18;101801.67;;;4.19;39.46
76680;BME280;65597;51.520;-0.224;2022-12-18T09:22:43;101793.26;;;4.29;39.36
76680;BME280;65597;51.520;-0.224;2022-12-18T09:25:09;101792.33;;;4.13;39.67
76680;BME280;65597;51.520;-0.224;2022-12-18T09:27:34;101799.39;;;3.71;40.19
76680;BME280;65597;51.520;-0.224;2022-12-18T09:30:00;101805.04;;;4.46;39.70
76680;BME280;65597;51.520;-0.224;2022-12-18T09:32:26;101809.54;;;4.12;39.50
76680;BME280;65597;51.520;-0.224;2022-12-18T09:34:52;101806.90;;;4.21;39.88
76680;BME280;65597;51.520;-0.224;2022-12-18T09:37:16;101820.02;;;4.15;39.69
76680;BME280;65597;51.520;-0.224;2022-12-18T09:39:41;101821.60;;;4.44;39.37
76680;BME280;65597;51.520;-0.224;2022-12-18T09:42:13;101824.95;;;4.55;39.36
76680;BME280;65597;51.520;-0.224;2022-12-18T09:44:36;101821.44;;;4.57;39.26
76680;BME280;65597;51.520;-0.224;2022-12-18T09:47:05;101822.41;;;4.47;39.72
76680;BME280;65597;51.520;-0.224;2022-12-18T09:49:26;101808.40;;;4.31;39.47
76680;BME280;65597;51.520;-0.224;2022-12-18T09:51:52;101803.82;;;3.88;40.13
76680;BME280;65597;51.520;-0.224;2022-12-18T09:54:20;101808.70;;;4.22;39.69
76680;BME280;65597;51.520;-0.224;2022-12-18T09:56:41;101806.67;;;4.30;39.55
76680;BME280;65597;51.520;-0.224;2022-12-18T09:59:05;101815.18;;;4.39;39.59
76680;BME280;65597;51.520;-0.224;2022-12-18T10:01:31;101819.19;;;4.34;39.66
76680;BME280;65597;51.520;-0.224;2022-12-18T10:03:56;101825.09;;;4.34;39.90
76680;BME280;65597;51.520;-0.224;2022-12-18T10:06:25;101823.53;;;3.55;40.25
76680;BME280;65597;51.520;-0.224;2022-12-18T10:08:52;101824.74;;;4.42;39.92
76680;BME280;65597;51.520;-0.224;2022-12-18T10:11:25;101822.41;;;4.49;39.94
76680;BME280;65597;51.520;-0.224;2022-12-18T10:13:41;101819.08;;;4.52;39.73
76680;BME280;65597;51.520;-0.224;2022-12-18T10:16:09;101814.62;;;4.59;39.75
76680;BME280;65597;51.520;-0.224;2022-12-18T10:18:40;101816.53;;;4.59;39.82
76680;BME280;65597;51.520;-0.224;2022-12-18T10:20:55;101813.58;;;4.67;39.87
76680;BME280;65597;51.520;-0.224;2022-12-18T10:23:25;101805.56;;;4.70;39.83
76680;BME280;65597;51.520;-0.224;2022-12-18T10:25:50;101800.52;;;4.98;39.64
76680;BME280;65597;51.520;-0.224;2022-12-18T10:28:11;101801.90;;;4.97;39.87
76680;BME280;65597;51.520;-0.224;2022-12-18T10:30:35;101805.81;;;4.78;39.91
76680;BME280;65597;51.520;-0.224;2022-12-18T10:33:00;101801.50;;;4.87;39.63
76680;BME280;65597;51.520;-0.224;2022-12-18T10:35:26;101788.74;;;4.73;39.82
76680;BME280;65597;51.520;-0.224;2022-12-18T10:38:02;101779.57;;;4.83;39.48
76680;BME280;65597;51.520;-0.224;2022-12-18T10:40:17;101774.91;;;4.69;39.70
76680;BME280;65597;51.520;-0.224;2022-12-18T10:42:43;101766.83;;;4.54;39.35
76680;BME280;65597;51.520;-0.224;2022-12-18T10:45:11;101760.29;;;4.82;39.57
76680;BME280;65597;51.520;-0.224;2022-12-18T10:47:34;101759.21;;;4.85;39.88
76680;BME280;65597;51.520;-0.224;2022-12-18T10:49:59;101746.19;;;4.41;40.21
76680;BME280;65597;51.520;-0.224;2022-12-18T10:52:26;101745.77;;;4.55;39.93
76680;BME280;65597;51.520;-0.224;2022-12-18T10:54:53;101734.13;;;4.30;40.70
76680;BME280;65597;51.520;-0.224;2022-12-18T10:59:51;101722.31;;;4.61;40.12
76680;BME280;65597;51.520;-0.224;2022-12-18T11:02:23;101714.47;;;4.28;40.61
76680;BME280;65597;51.520;-0.224;2022-12-18T11:04:32;101705.68;;;4.58;40.27
76680;BME280;65597;51.520;-0.224;2022-12-18T11:06:59;101698.84;;;4.64;39.96
76680;BME280;65597;51.520;-0.224;2022-12-18T11:09:25;101692.02;;;4.45;40.40
76680;BME280;65597;51.520;-0.224;2022-12-18T11:11:49;101692.49;;;4.66;40.21
76680;BME280;65597;51.520;-0.224;2022-12-18T11:14:20;101691.05;;;4.42;40.79
76680;BME280;65597;51.520;-0.224;2022-12-18T11:16:44;101695.25;;;4.52;40.68
76680;BME280;65597;51.520;-0.224;2022-12-18T11:19:19;101698.49;;;4.62;40.34
76680;BME280;65597;51.520;-0.224;2022-12-18T11:21:38;101693.42;;;4.59;40.78
76680;BME280;65597;51.520;-0.224;2022-12-18T11:23:56;101680.28;;;4.35;41.23
76680;BME280;65597;51.520;-0.224;2022-12-18T11:28:50;101664.07;;;4.79;41.22
76680;BME280;65597;51.520;-0.224;2022-12-18T11:31:19;101657.11;;;4.62;41.66
76680;BME280;65597;51.520;-0.224;2022-12-18T11:33:40;101648.72;;;4.63;41.53
76680;BME280;65597;51.520;-0.224;2022-12-18T11:36:05;101639.78;;;4.65;42.07
76680;BME280;65597;51.520;-0.224;2022-12-18T11:38:32;101641.44;;;4.52;41.84
76680;BME280;65597;51.520;-0.224;2022-12-18T11:40:59;101637.58;;;4.77;42.08
76680;BME280;65597;51.520;-0.224;2022-12-18T11:43:26;101639.62;;;4.89;42.33
76680;BME280;65597;51.520;-0.224;2022-12-18T11:45:51;101639.06;;;4.87;42.14
76680;BME280;65597;51.520;-0.224;2022-12-18T11:48:18;101642.74;;;4.86;42.32
76680;BME280;65597;51.520;-0.224;2022-12-18T11:50:46;101634.77;;;4.92;42.33
76680;BME280;65597;51.520;-0.224;2022-12-18T11:53:02;101630.57;;;4.81;42.63
76680;BME280;65597;51.520;-0.224;2022-12-18T11:55:37;101625.99;;;4.67;42.47
76680;BME280;65597;51.520;-0.224;2022-12-18T11:57:58;101622.46;;;4.97;42.15
76680;BME280;65597;51.520;-0.224;2022-12-18T12:00:20;101608.77;;;4.64;43.00
76680;BME280;65597;51.520;-0.224;2022-12-18T12:05:19;101613.57;;;4.83;42.61
76680;BME280;65597;51.520;-0.224;2022-12-18T12:07:43;101608.66;;;4.42;43.05
76680;BME280;65597;51.520;-0.224;2022-12-18T12:10:12;101600.71;;;4.68;42.85
76680;BME280;65597;51.520;-0.224;2022-12-18T12:12:34;101593.05;;;4.93;43.00
76680;BME280;65597;51.520;-0.224;2022-12-18T12:14:59;101579.81;;;4.91;43.10
76680;BME280;65597;51.520;-0.224;2022-12-18T12:17:27;101573.50;;;4.50;43.08
76680;BME280;65597;51.520;-0.224;2022-12-18T12:19:49;101564.50;;;5.07;43.19
76680;BME280;65597;51.520;-0.224;2022-12-18T12:22:16;101553.35;;;4.84;43.38
76680;BME280;65597;51.520;-0.224;2022-12-18T12:24:44;101547.17;;;4.73;43.67
76680;BME280;65597;51.520;-0.224;2022-12-18T12:27:06;101541.46;;;5.09;43.77
76680;BME280;65597;51.520;-0.224;2022-12-18T12:29:37;101531.59;;;5.06;43.77
76680;BME280;65597;51.520;-0.224;2022-12-18T12:32:00;101525.10;;;4.57;44.11
76680;BME280;65597;51.520;-0.224;2022-12-18T12:34:19;101523.31;;;4.93;44.53
76680;BME280;65597;51.520;-0.224;2022-12-18T12:36:52;101520.55;;;4.92;44.44
76680;BME280;65597;51.520;-0.224;2022-12-18T12:39:11;101515.72;;;4.69;45.12
76680;BME280;65597;51.520;-0.224;2022-12-18T12:41:35;101517.99;;;4.84;44.76
76680;BME280;65597;51.520;-0.224;2022-12-18T12:44:01;101517.16;;;4.70;44.60
76680;BME280;65597;51.520;-0.224;2022-12-18T12:46:25;101531.36;;;4.78;44.90